createdAt,value
2018-12-25T00:02:25.366Z,102191.40
2018-12-25T00:05:28.257Z,102186.59
2018-12-25T00:08:38.968Z,102182.72
2018-12-25T00:11:42.266Z,102184.45
2018-12-25T00:14:53.009Z,102183.98
2018-12-25T00:17:56.239Z,102166.16
2018-12-25T00:21:06.947Z,102172.23
2018-12-25T00:24:09.896Z,102160.50
2018-12-25T00:27:20.626Z,102161.31
2018-12-25T00:30:24.260Z,102159.13
2018-12-25T00:33:34.962Z,102159.13
2018-12-25T00:36:38.262Z,102162.59
2018-12-25T00:39:48.951Z,102153.87
2018-12-25T00:42:52.213Z,102147.80
2018-12-25T00:46:02.918Z,102154.75
2018-12-25T00:49:05.793Z,102160.82
2018-12-25T00:52:16.507Z,102169.50
2018-12-25T00:55:20.199Z,102170.42
2018-12-25T00:58:23.065Z,102180.42
2018-12-25T01:01:33.755Z,102182.99
2018-12-25T01:04:36.846Z,102181.30
2018-12-25T01:07:47.519Z,102173.84
2018-12-25T01:10:50.797Z,102177.77
2018-12-25T01:14:01.538Z,102176.92
2018-12-25T01:17:05.033Z,102183.95
2018-12-25T01:20:15.690Z,102185.68
2018-12-25T01:23:19.339Z,102187.41
2018-12-25T01:26:29.998Z,102185.72
2018-12-25T01:29:33.761Z,102190.91
2018-12-25T01:32:44.396Z,102186.56
2018-12-25T01:35:47.279Z,102196.09
2018-12-25T01:38:57.988Z,102194.93
2018-12-25T01:42:00.888Z,102190.59
2018-12-25T01:45:11.699Z,102190.06
2018-12-25T01:48:15.369Z,102199.58
2018-12-25T01:51:26.085Z,102204.39
2018-12-25T01:54:29.185Z,102206.58
2018-12-25T01:57:32.871Z,102197.44
2018-12-25T02:00:35.957Z,102197.05
2018-12-25T02:03:46.652Z,102188.75
2018-12-25T02:06:49.542Z,102200.89
2018-12-25T02:10:00.235Z,102206.11
2018-12-25T02:13:03.882Z,102203.47
2018-12-25T02:16:14.563Z,102197.40
2018-12-25T02:19:17.516Z,102197.86
2018-12-25T02:22:28.227Z,102202.16
2018-12-25T02:25:31.141Z,102206.54
2018-12-25T02:28:41.827Z,102215.22
2018-12-25T02:31:45.301Z,102204.34
2018-12-25T02:34:56.008Z,102208.27
2018-12-25T02:37:58.969Z,102212.23
2018-12-25T02:41:01.963Z,102216.56
2018-12-25T02:44:05.150Z,102210.50
2018-12-25T02:47:15.818Z,102218.72
2018-12-25T02:50:18.854Z,102206.04
2018-12-25T02:53:29.549Z,102210.00
2018-12-25T02:56:32.501Z,102208.27
2018-12-25T02:59:43.231Z,102207.88
2018-12-25T03:02:46.218Z,102202.20
2018-12-25T03:05:56.909Z,102201.78
2018-12-25T03:09:00.353Z,102200.01
2018-12-25T03:12:11.078Z,102196.47
2018-12-25T03:15:14.597Z,102203.05
2018-12-25T03:18:25.337Z,102193.02
2018-12-25T03:21:28.588Z,102194.32
2018-12-25T03:24:32.197Z,102183.91
2018-12-25T03:27:35.742Z,102175.27
2018-12-25T03:30:46.397Z,102167.81
2018-12-25T03:33:49.560Z,102173.50
2018-12-25T03:37:00.305Z,102184.72
2018-12-25T03:40:03.560Z,102170.78
2018-12-25T03:43:33.138Z,102166.44
2018-12-25T03:46:36.651Z,102160.37
2018-12-25T03:49:47.384Z,102162.55
2018-12-25T03:52:50.852Z,102154.26
2018-12-25T03:55:53.927Z,102152.92
2018-12-25T03:59:04.775Z,102151.19
2018-12-25T04:02:07.847Z,102156.45
2018-12-25T04:05:10.683Z,102149.42
2018-12-25T04:08:15.694Z,102149.42
2018-12-25T04:11:26.045Z,102156.88
2018-12-25T04:14:29.682Z,102156.87
2018-12-25T04:17:40.332Z,102153.38
2018-12-25T04:20:43.571Z,102158.56
2018-12-25T04:23:46.430Z,102156.48
2018-12-25T04:26:49.356Z,102161.17
2018-12-25T04:30:00.045Z,102154.26
2018-12-25T04:33:03.186Z,102152.56
2018-12-25T04:36:13.923Z,102156.88
2018-12-25T04:39:17.148Z,102152.49
2018-12-25T04:42:20.687Z,102165.13
2018-12-25T04:45:31.362Z,102159.91
2018-12-25T04:48:35.009Z,102161.67
2018-12-25T04:51:45.709Z,102172.08
2018-12-25T04:54:48.680Z,102173.43
2018-12-25T04:57:52.479Z,102168.23
2018-12-25T05:00:55.764Z,102162.52
2018-12-25T05:04:06.448Z,102161.71
2018-12-25T05:07:09.774Z,102155.95
2018-12-25T05:10:20.467Z,102159.52
2018-12-25T05:13:24.024Z,102158.60
2018-12-25T05:16:34.685Z,102153.80
2018-12-25T05:19:38.228Z,102155.95
2018-12-25T05:22:48.919Z,102155.52
2018-12-25T05:25:52.393Z,102153.38
2018-12-25T05:29:03.107Z,102153.34
2018-12-25T05:32:06.669Z,102155.48
2018-12-25T05:35:10.239Z,102155.45
2018-12-25T05:38:20.911Z,102168.50
2018-12-25T05:41:24.002Z,102166.78
2018-12-25T05:44:34.652Z,102167.62
2018-12-25T05:47:38.377Z,102171.12
2018-12-25T05:50:49.084Z,102174.19
2018-12-25T05:53:52.539Z,102171.16
2018-12-25T05:57:03.243Z,102160.33
2018-12-25T06:00:06.942Z,102158.63
2018-12-25T06:03:36.698Z,102166.40
2018-12-25T06:06:39.784Z,102159.45
2018-12-25T06:09:50.491Z,102162.94
2018-12-25T06:12:53.901Z,102160.79
2018-12-25T06:16:04.636Z,102165.09
2018-12-25T06:19:07.888Z,102169.85
2018-12-25T06:22:11.218Z,102164.66
2018-12-25T06:25:21.912Z,102170.66
2018-12-25T06:28:24.682Z,102163.36
2018-12-25T06:34:59.603Z,102168.97
2018-12-25T06:38:10.315Z,102171.11
2018-12-25T06:41:13.760Z,102171.12
2018-12-25T06:44:24.482Z,102163.74
2018-12-25T06:47:28.187Z,102170.23
2018-12-25T06:50:38.905Z,102173.77
2018-12-25T06:53:42.709Z,102170.70
2018-12-25T06:56:53.373Z,102174.19
2018-12-25T06:59:56.791Z,102172.00
2018-12-25T07:02:48.510Z,102169.81
2018-12-25T07:05:40.273Z,102167.23
2018-12-25T07:08:50.971Z,102162.91
2018-12-25T07:11:55.455Z,102154.64
2018-12-25T07:14:59.029Z,102158.56
2018-12-25T07:18:09.776Z,102165.52
2018-12-25T07:21:12.707Z,102158.56
2018-12-25T07:24:16.446Z,102158.56
2018-12-25T07:27:19.191Z,102156.88
2018-12-25T07:30:22.390Z,102158.63
2018-12-25T07:33:33.096Z,102162.13
2018-12-25T07:36:36.393Z,102162.52
2018-12-25T07:39:47.100Z,102151.19
2018-12-25T07:42:49.818Z,102155.95
2018-12-25T07:45:52.783Z,102155.14
2018-12-25T07:49:03.484Z,102151.65
2018-12-25T07:52:06.458Z,102156.91
2018-12-25T07:55:09.517Z,102151.68
2018-12-25T07:58:20.268Z,102146.39
2018-12-25T08:01:23.424Z,102151.61
2018-12-25T08:04:34.142Z,102150.30
2018-12-25T08:07:37.432Z,102159.41
2018-12-25T08:10:48.146Z,102165.47
2018-12-25T08:13:51.922Z,102171.12
2018-12-25T08:17:02.694Z,102179.37
2018-12-25T08:20:06.063Z,102181.10
2018-12-25T08:23:16.782Z,102177.19
2018-12-25T08:26:20.418Z,102177.19
2018-12-25T08:29:31.172Z,102181.56
2018-12-25T08:32:34.005Z,102177.64
2018-12-25T08:35:44.815Z,102184.22
2018-12-25T08:38:47.751Z,102180.77
2018-12-25T08:41:58.547Z,102175.16
2018-12-25T08:45:01.918Z,102183.80
2018-12-25T08:48:12.648Z,102192.98
2018-12-25T08:51:16.123Z,102187.80
2018-12-25T08:54:26.815Z,102187.37
2018-12-25T08:57:30.200Z,102194.40
2018-12-25T09:00:59.807Z,102198.39
2018-12-25T09:04:03.113Z,102202.31
2018-12-25T09:07:13.785Z,102197.13
2018-12-25T09:10:16.734Z,102194.94
2018-12-25T09:13:27.484Z,102195.92
2018-12-25T09:16:31.046Z,102195.22
2018-12-25T09:19:41.715Z,102199.99
2018-12-25T09:22:45.547Z,102189.95
2018-12-25T09:25:56.281Z,102180.83
2018-12-25T09:28:59.906Z,102178.39
2018-12-25T09:32:10.655Z,102175.87
2018-12-25T09:35:14.444Z,102165.06
2018-12-25T09:38:17.404Z,102160.69
2018-12-25T09:41:28.164Z,102159.80
2018-12-25T09:44:31.523Z,102158.45
2018-12-25T09:47:42.228Z,102151.72
2018-12-25T09:50:45.242Z,102150.48
2018-12-25T09:53:55.938Z,102156.36
2018-12-25T09:56:59.013Z,102152.51
2018-12-25T10:00:02.248Z,102150.02
2018-12-25T10:03:05.296Z,102147.48
2018-12-25T10:06:15.993Z,102150.22
2018-12-25T10:09:19.417Z,102148.57
2018-12-25T10:12:22.788Z,102152.95
2018-12-25T10:15:33.462Z,102147.16
2018-12-25T10:18:36.304Z,102146.97
2018-12-25T10:21:47.066Z,102147.69
2018-12-25T10:24:51.420Z,102160.97
2018-12-25T10:28:02.153Z,102158.13
2018-12-25T10:31:05.684Z,102175.79
2018-12-25T10:34:16.388Z,102175.44
2018-12-25T10:37:19.910Z,102168.73
2018-12-25T10:40:30.632Z,102157.88
2018-12-25T10:43:34.937Z,102150.83
2018-12-25T10:46:45.734Z,102159.73
2018-12-25T10:49:49.262Z,102168.99
2018-12-25T10:52:59.991Z,102166.66
2018-12-25T10:56:03.182Z,102166.61
2018-12-25T10:59:06.585Z,102160.88
2018-12-25T11:02:10.392Z,102164.56
2018-12-25T11:05:21.083Z,102171.14
2018-12-25T11:08:24.079Z,102173.16
2018-12-25T11:15:06.708Z,102168.17
2018-12-25T11:18:10.042Z,102162.93
2018-12-25T11:21:12.969Z,102155.72
2018-12-25T11:24:16.731Z,102156.63
2018-12-25T11:27:19.516Z,102145.63
2018-12-25T11:30:30.259Z,102145.13
2018-12-25T11:33:33.281Z,102150.68
2018-12-25T11:36:44.058Z,102151.67
2018-12-25T11:39:49.590Z,102139.95
2018-12-25T11:42:59.893Z,102148.66
2018-12-25T11:46:03.224Z,102151.55
2018-12-25T11:49:13.965Z,102140.56
2018-12-25T11:52:17.585Z,102129.94
2018-12-25T11:58:25.017Z,102135.74
2018-12-25T12:01:28.403Z,102147.63
2018-12-25T12:04:31.814Z,102149.98
2018-12-25T12:07:34.912Z,102149.54
2018-12-25T12:10:45.585Z,102137.75
2018-12-25T12:13:48.793Z,102143.02
2018-12-25T12:16:59.508Z,102146.05
2018-12-25T12:20:02.698Z,102145.60
2018-12-25T12:23:13.383Z,102135.08
2018-12-25T12:26:16.881Z,102138.52
2018-12-25T12:29:27.536Z,102139.03
2018-12-25T12:32:30.503Z,102140.70
2018-12-25T12:35:41.185Z,102142.39
2018-12-25T12:41:35.326Z,102125.73
2018-12-25T12:44:38.360Z,102141.08
2018-12-25T12:47:41.352Z,102129.58
2018-12-25T12:50:51.759Z,102125.91
2018-12-25T12:53:54.288Z,102125.30
2018-12-25T12:56:57.631Z,102121.72
2018-12-25T13:00:08.751Z,102122.02
2018-12-25T13:03:11.584Z,102114.88
2018-12-25T13:06:21.873Z,102109.34
2018-12-25T13:09:25.078Z,102113.04
2018-12-25T13:12:35.375Z,102116.78
2018-12-25T13:15:38.176Z,102117.09
2018-12-25T13:18:41.589Z,102124.95
2018-12-25T13:21:51.886Z,102132.98
2018-12-25T13:24:55.338Z,102139.98
2018-12-25T13:28:05.633Z,102137.94
2018-12-25T13:31:08.616Z,102135.08
2018-12-25T13:34:18.885Z,102136.64
2018-12-25T13:37:22.060Z,102125.13
2018-12-25T13:40:33.243Z,102141.80
2018-12-25T13:43:36.688Z,102137.08
2018-12-25T13:50:29.815Z,102134.44
2018-12-25T13:57:08.071Z,102141.90
2018-12-25T14:00:11.030Z,102144.53
2018-12-25T14:03:13.921Z,102147.60
2018-12-25T14:06:16.586Z,102149.79
2018-12-25T14:09:26.891Z,102157.62
2018-12-25T14:12:29.523Z,102147.59
2018-12-25T14:15:32.611Z,102143.23
2018-12-25T14:18:42.931Z,102136.69
2018-12-25T14:21:45.797Z,102151.55
2018-12-25T14:24:56.079Z,102150.65
2018-12-25T14:27:59.275Z,102157.61
2018-12-25T14:31:09.563Z,102153.27
2018-12-25T14:34:12.917Z,102151.52
2018-12-25T14:37:23.192Z,102143.66
2018-12-25T14:40:26.244Z,102142.79
2018-12-25T14:43:36.638Z,102140.61
2018-12-25T14:46:39.989Z,102140.58
2018-12-25T14:49:50.257Z,102136.68
2018-12-25T14:52:53.291Z,102137.95
2018-12-25T14:56:03.593Z,102138.41
2018-12-25T14:59:06.128Z,102137.08
2018-12-25T15:02:16.418Z,102137.52
2018-12-25T15:05:19.171Z,102140.15
2018-12-25T15:08:29.450Z,102130.53
2018-12-25T15:11:32.865Z,102141.45
2018-12-25T15:14:43.344Z,102142.77
2018-12-25T15:17:46.820Z,102140.99
2018-12-25T15:20:50.265Z,102135.27
2018-12-25T15:24:00.559Z,102145.27
2018-12-25T15:27:03.266Z,102144.83
2018-12-25T15:30:06.761Z,102145.70
2018-12-25T15:33:16.986Z,102150.41
2018-12-25T15:36:20.325Z,102148.64
2018-12-25T15:39:30.581Z,102149.50
2018-12-25T15:42:33.480Z,102146.02
2018-12-25T15:45:36.245Z,102142.10
2018-12-25T15:48:39.205Z,102144.27
2018-12-25T15:51:49.534Z,102150.38
2018-12-25T15:54:52.943Z,102149.48
2018-12-25T15:58:03.211Z,102148.64
2018-12-25T16:01:06.003Z,102152.08
2018-12-25T16:04:10.441Z,102153.80
2018-12-25T16:07:13.163Z,102162.11
2018-12-25T16:10:23.471Z,102165.17
2018-12-25T16:13:26.838Z,102165.59
2018-12-25T16:16:37.113Z,102157.73
2018-12-25T16:19:39.604Z,102154.69
2018-12-25T16:22:49.868Z,102159.92
2018-12-25T16:25:52.454Z,102161.22
2018-12-25T16:29:02.739Z,102160.74
2018-12-25T16:32:05.560Z,102159.44
2018-12-25T16:35:15.856Z,102162.05
2018-12-25T16:38:18.389Z,102164.64
2018-12-25T16:41:28.671Z,102164.61
2018-12-25T16:44:31.872Z,102160.69
2018-12-25T16:47:42.143Z,102156.83
2018-12-25T16:50:44.903Z,102172.05
2018-12-25T16:53:55.236Z,102172.45
2018-12-25T16:56:58.187Z,102178.56
2018-12-25T17:00:09.015Z,102172.00
2018-12-25T17:03:12.464Z,102174.64
2018-12-25T17:06:15.306Z,102178.14
2018-12-25T17:09:18.466Z,102178.56
2018-12-25T17:12:28.794Z,102175.06
2018-12-25T17:15:31.341Z,102182.45
2018-12-25T17:18:41.678Z,102175.49
2018-12-25T17:21:44.119Z,102182.06
2018-12-25T17:24:54.463Z,102171.59
2018-12-25T17:27:57.750Z,102178.11
2018-12-25T17:31:08.087Z,102170.27
2018-12-25T17:34:10.786Z,102168.50
2018-12-25T17:37:13.729Z,102173.70
2018-12-25T17:40:24.044Z,102173.70
2018-12-25T17:43:26.964Z,102169.36
2018-12-25T17:46:37.249Z,102177.20
2018-12-25T17:49:39.949Z,102177.66
2018-12-25T17:52:50.300Z,102179.75
2018-12-25T17:55:52.830Z,102181.97
2018-12-25T17:59:03.171Z,102174.95
2018-12-25T18:02:05.861Z,102175.34
2018-12-25T18:05:12.127Z,102173.61
2018-12-25T18:08:20.787Z,102170.99
2018-12-25T18:11:23.701Z,102173.11
2018-12-25T18:14:26.400Z,102176.22
2018-12-25T18:17:36.739Z,102176.64
2018-12-25T18:20:40.120Z,102177.88
2018-12-25T18:23:43.086Z,102173.11
2018-12-25T18:26:53.387Z,102177.88
2018-12-25T18:29:56.673Z,102176.53
2018-12-25T18:32:59.852Z,102176.15
2018-12-25T18:36:10.156Z,102182.22
2018-12-25T18:39:13.208Z,102174.34
2018-12-25T18:42:23.613Z,102182.30
2018-12-25T18:45:26.841Z,102180.11
2018-12-25T18:48:37.189Z,102177.84
2018-12-25T18:51:40.659Z,102168.23
2018-12-25T18:54:50.948Z,102170.39
2018-12-25T18:57:53.447Z,102166.05
2018-12-25T19:01:03.744Z,102166.44
2018-12-25T19:04:06.545Z,102157.72
2018-12-25T19:07:16.807Z,102153.34
2018-12-25T19:10:20.240Z,102153.76
2018-12-25T19:13:30.509Z,102158.52
2018-12-25T19:16:33.796Z,102158.52
2018-12-25T19:19:36.717Z,102152.45
2018-12-25T19:22:47.001Z,102159.41
2018-12-25T19:25:50.318Z,102157.18
2018-12-25T19:29:00.559Z,102151.64
2018-12-25T19:32:03.388Z,102150.38
2018-12-25T19:35:13.703Z,102154.19
2018-12-25T19:38:16.423Z,102151.08
2018-12-25T19:41:19.854Z,102154.48
2018-12-25T19:44:30.163Z,102151.06
2018-12-25T19:47:33.072Z,102157.52
2018-12-25T19:50:43.375Z,102166.66
2018-12-25T19:53:46.445Z,102157.98
2018-12-25T19:56:56.762Z,102159.78
2018-12-25T19:59:59.507Z,102161.43
2018-12-25T20:03:21.736Z,102156.59
2018-12-25T20:06:46.397Z,102150.94
2018-12-25T20:10:08.275Z,102146.94
2018-12-25T20:13:56.728Z,102148.67
2018-12-25T20:17:10.432Z,102153.00
2018-12-25T20:20:58.825Z,102145.92
2018-12-25T20:24:06.555Z,102149.73
2018-12-25T20:27:16.407Z,102154.39
2018-12-25T20:31:04.774Z,102154.81
2018-12-25T20:34:26.541Z,102155.16
2018-12-25T20:38:14.939Z,102149.37
2018-12-25T20:41:40.149Z,102145.82
2018-12-25T20:45:28.556Z,102146.23
2018-12-25T20:48:50.775Z,102140.95
2018-12-25T20:52:12.656Z,102138.28
2018-12-25T20:56:01.027Z,102141.79
2018-12-25T20:59:23.146Z,102137.88
2018-12-25T21:03:11.535Z,102136.03
2018-12-25T21:06:33.309Z,102138.11
2018-12-25T21:10:21.646Z,102139.77
2018-12-25T21:13:43.661Z,102146.30
2018-12-25T21:17:32.016Z,102143.62
2018-12-25T21:24:59.187Z,102146.69
2018-12-25T21:28:01.008Z,102147.88
2018-12-25T21:31:04.100Z,102140.05
2018-12-25T21:34:14.467Z,102138.75
2018-12-25T21:37:17.204Z,102145.19
2018-12-25T21:40:28.204Z,102128.73
2018-12-25T21:43:31.105Z,102130.73
2018-12-25T21:50:05.045Z,102125.81
2018-12-25T21:53:15.337Z,102110.94
2018-12-25T21:56:18.152Z,102116.98
2018-12-25T21:59:28.454Z,102113.86
2018-12-25T22:02:31.826Z,102117.32
2018-12-25T22:05:42.128Z,102104.83
2018-12-25T22:08:44.952Z,102107.31
2018-12-25T22:11:49.777Z,102095.91
2018-12-25T22:15:00.156Z,102092.02
2018-12-25T22:18:02.944Z,102086.73
2018-12-25T22:21:13.273Z,102079.25
2018-12-25T22:24:16.147Z,102084.41
2018-12-25T22:27:26.558Z,102082.70
2018-12-25T22:30:29.079Z,102083.73
2018-12-25T22:33:39.347Z,102093.52
2018-12-25T22:36:42.186Z,102092.13
2018-12-25T22:39:52.510Z,102090.00
2018-12-25T22:42:55.738Z,102085.55
2018-12-25T22:45:58.996Z,102082.41
2018-12-25T22:49:09.247Z,102083.78
2018-12-25T22:52:12.852Z,102085.38
2018-12-25T22:55:23.284Z,102096.55
2018-12-25T22:58:25.830Z,102090.52
2018-12-25T23:01:36.103Z,102087.02
2018-12-25T23:04:38.839Z,102087.91
2018-12-25T23:07:49.094Z,102083.21
2018-12-25T23:10:51.957Z,102081.41
2018-12-25T23:14:02.216Z,102091.19
2018-12-25T23:17:04.815Z,102088.11
2018-12-25T23:20:15.073Z,102081.25
2018-12-25T23:23:17.922Z,102082.07
2018-12-25T23:26:28.219Z,102081.19
2018-12-25T23:29:30.801Z,102077.78
2018-12-25T23:32:41.162Z,102087.28
2018-12-25T23:35:44.018Z,102077.34
2018-12-25T23:38:54.287Z,102081.09
2018-12-25T23:41:56.867Z,102079.38
2018-12-25T23:45:07.320Z,102083.22
2018-12-25T23:48:10.129Z,102085.95
2018-12-25T23:51:20.442Z,102091.53
2018-12-25T23:54:23.811Z,102084.52
2018-12-25T23:57:34.111Z,102086.62
